Time;durP1;ratioP1;P1;durP2;ratioP2;P2;SDS_P1;SDS_P2;PMS_P1;PMS_P2;Temp;Humidity;BMP_temperature;BMP_pressure;BME280_temperature;BME280_humidity;BME280_pressure;Samples;Min_cycle;Max_cycle;Signal;HPM_P1;HPM_P2
2023/04/24 00:09:53;;;;;;;1999.90;999.90;;;11.90;99.90;;;;;;6730730;88;20185;-76
2023/04/24 00:19:58;;;;;;;1999.90;999.90;;;11.90;99.90;;;;;;6729641;88;20185;-75
2023/04/24 00:29:58;;;;;;;1999.90;999.90;;;12.00;99.90;;;;;;6731256;88;20231;-74
2023/04/24 00:39:59;;;;;;;1999.90;999.90;;;12.00;99.90;;;;;;6728173;88;20275;-75
2023/04/24 00:50:06;;;;;;;1999.90;999.90;;;11.90;99.90;;;;;;6728729;88;20271;-76
2023/04/24 01:00:10;;;;;;;1999.90;999.90;;;12.10;99.90;;;;;;6728114;88;20196;-75
2023/04/24 01:10:12;;;;;;;1999.90;999.90;;;12.00;99.90;;;;;;6728159;88;20259;-75
2023/04/24 01:20:14;;;;;;;1999.90;999.90;;;11.90;99.90;;;;;;6727451;88;20600;-75
2023/04/24 01:30:14;;;;;;;1999.90;999.90;;;12.00;99.90;;;;;;6729038;88;20303;-75
2023/04/24 01:40:15;;;;;;;1999.90;999.90;;;11.80;99.90;;;;;;6726842;88;20319;-76
2023/04/24 01:50:16;;;;;;;1999.90;999.90;;;11.50;99.90;;;;;;6725292;88;20208;-76
2023/04/24 02:00:16;;;;;;;1999.90;999.90;;;11.40;99.90;;;;;;6729496;88;20648;-76
2023/04/24 02:10:17;;;;;;;1999.90;999.90;;;11.20;99.90;;;;;;6727795;88;20255;-76
2023/04/24 02:20:17;;;;;;;1999.90;999.90;;;11.00;99.90;;;;;;6728249;88;20641;-76
2023/04/24 02:30:18;;;;;;;1999.90;999.90;;;10.80;99.90;;;;;;6726211;88;20671;-75
2023/04/24 02:40:18;;;;;;;1999.90;999.90;;;10.60;99.90;;;;;;6723899;88;20582;-77
2023/04/24 02:50:19;;;;;;;1999.90;999.90;;;10.20;99.90;;;;;;6729755;88;20174;-76
2023/04/24 03:00:20;;;;;;;1999.90;999.90;;;9.90;99.90;;;;;;6731867;88;20224;-76
2023/04/24 03:10:22;;;;;;;1999.90;999.90;;;9.80;99.90;;;;;;6730264;88;20252;-76
2023/04/24 03:20:23;;;;;;;1999.90;999.90;;;9.60;99.90;;;;;;6735187;88;20643;-76
2023/04/24 03:30:23;;;;;;;1999.90;999.90;;;9.40;99.90;;;;;;6727689;88;20982;-76
2023/04/24 03:40:24;;;;;;;1999.90;999.90;;;9.50;99.90;;;;;;6733568;88;20201;-76
2023/04/24 03:50:26;;;;;;;1999.90;999.90;;;9.30;99.90;;;;;;6726866;88;20208;-77
2023/04/24 04:00:27;;;;;;;1999.90;999.90;;;9.20;99.90;;;;;;6728195;88;20215;-76
2023/04/24 04:10:28;;;;;;;1999.90;999.90;;;9.20;99.90;;;;;;6727845;88;20685;-76
2023/04/24 04:20:28;;;;;;;1999.90;999.90;;;9.10;99.90;;;;;;6725042;88;20211;-76
2023/04/24 04:30:32;;;;;;;1999.90;999.90;;;9.00;99.90;;;;;;6727159;88;20654;-76
2023/04/24 04:40:32;;;;;;;1999.90;999.90;;;8.90;99.90;;;;;;6727833;88;20302;-76
2023/04/24 04:50:33;;;;;;;1999.90;999.90;;;9.00;99.90;;;;;;6723038;88;20241;-77
2023/04/24 05:00:35;;;;;;;1999.90;999.90;;;9.10;99.90;;;;;;6726200;88;20181;-75
2023/04/24 05:10:36;;;;;;;1999.90;999.90;;;9.10;99.90;;;;;;6728189;88;20330;-76
2023/04/24 05:20:37;;;;;;;1999.90;999.90;;;9.30;99.90;;;;;;6730798;88;20679;-76
2023/04/24 05:30:37;;;;;;;1999.90;999.90;;;9.30;99.90;;;;;;6729026;88;20306;-75
2023/04/24 05:40:39;;;;;;;1999.90;999.90;;;9.40;99.90;;;;;;6730944;88;20502;-76
2023/04/24 05:50:39;;;;;;;1999.90;999.90;;;9.50;99.90;;;;;;6729728;88;20704;-75
2023/04/24 06:00:42;;;;;;;1999.90;999.90;;;9.60;99.90;;;;;;6730285;88;20232;-76
2023/04/24 06:10:43;;;;;;;1999.90;999.90;;;9.70;99.90;;;;;;6729517;88;20640;-76
2023/04/24 06:20:43;;;;;;;1999.90;999.90;;;9.70;99.90;;;;;;6731555;88;20542;-76
2023/04/24 06:30:43;;;;;;;1999.90;999.90;;;9.70;99.90;;;;;;6729669;88;20205;-76
2023/04/24 06:40:45;;;;;;;1999.90;999.90;;;10.00;99.90;;;;;;6736847;88;20186;-76
2023/04/24 06:50:46;;;;;;;1999.90;999.90;;;10.20;99.90;;;;;;6729121;88;20240;-77
2023/04/24 07:00:47;;;;;;;1999.90;999.90;;;10.10;99.90;;;;;;6731948;88;20769;-76
2023/04/24 07:10:49;;;;;;;1999.90;999.90;;;9.90;99.90;;;;;;6734377;88;20223;-76
2023/04/24 07:20:50;;;;;;;1999.90;999.90;;;9.30;99.90;;;;;;6735944;88;20211;-76
2023/04/24 07:30:50;;;;;;;1999.90;999.90;;;9.20;99.90;;;;;;6738058;88;20211;-76
2023/04/24 07:40:51;;;;;;;1999.90;999.90;;;9.20;99.90;;;;;;6733897;88;20668;-76
2023/04/24 07:50:52;;;;;;;1999.90;999.90;;;9.20;99.90;;;;;;6731937;88;20701;-76
2023/04/24 08:00:53;;;;;;;1999.90;999.90;;;9.00;99.90;;;;;;6733100;88;20214;-76
2023/04/24 08:10:54;;;;;;;1999.90;999.90;;;8.90;99.90;;;;;;6734582;88;20260;-76
2023/04/24 08:20:55;;;;;;;1999.90;999.90;;;8.90;99.90;;;;;;6734029;88;20667;-76
2023/04/24 08:30:56;;;;;;;1999.90;999.90;;;8.70;99.90;;;;;;6737014;88;20184;-76
2023/04/24 08:40:59;;;;;;;1999.90;999.90;;;8.50;99.90;;;;;;6737713;88;20197;-77
2023/04/24 09:01:04;;;;;;;1999.90;999.90;;;7.70;99.90;;;;;;6696908;88;20217;-80
2023/04/24 09:11:04;;;;;;;1999.90;999.90;;;7.60;99.90;;;;;;6661226;88;20188;-80
2023/04/24 09:21:09;;;;;;;1999.90;999.90;;;7.60;99.90;;;;;;6694364;88;20201;-80
2023/04/24 09:31:17;;;;;;;1999.90;999.90;;;7.80;99.90;;;;;;6669251;88;20210;-79
2023/04/24 09:41:18;;;;;;;1999.90;999.90;;;7.90;99.90;;;;;;6672519;88;20663;-79
2023/04/24 09:51:35;;;;;;;1999.90;999.90;;;8.00;99.90;;;;;;6683104;88;20232;-80
2023/04/24 10:01:37;;;;;;;1999.90;999.90;;;7.90;99.90;;;;;;6685337;88;20193;-80
2023/04/24 10:11:47;;;;;;;1999.90;999.90;;;8.00;99.90;;;;;;6670486;88;20713;-80
2023/04/24 10:21:48;;;;;;;1999.90;999.90;;;8.10;99.90;;;;;;6667901;88;20652;-80
2023/04/24 10:31:49;;;;;;;1999.90;999.90;;;8.40;99.90;;;;;;6651570;88;20197;-81
2023/04/24 10:41:49;;;;;;;1999.90;999.90;;;8.30;99.90;;;;;;6665663;88;20196;-79
2023/04/24 10:51:53;;;;;;;1999.90;999.90;;;8.50;99.90;;;;;;6655598;88;20200;-78
2023/04/24 11:01:57;;;;;;;1999.90;999.90;;;8.50;99.90;;;;;;6667846;88;20351;-79
2023/04/24 11:12:06;;;;;;;1999.90;999.90;;;8.70;99.90;;;;;;6692839;88;20189;-80
2023/04/24 11:22:16;;;;;;;1999.90;999.90;;;8.80;99.90;;;;;;6663371;88;20197;-79
2023/04/24 11:32:37;;;;;;;1999.90;999.90;;;10.70;99.90;;;;;;6664151;88;20252;-80
2023/04/24 11:42:40;;;;;;;1999.90;999.90;;;10.40;99.90;;;;;;6686732;88;20202;-79
2023/04/24 11:52:42;;;;;;;1999.90;999.90;;;10.60;99.90;;;;;;6683981;88;20193;-79
2023/04/24 12:02:43;;;;;;;1999.90;999.90;;;10.70;99.90;;;;;;6672168;88;20244;-80
2023/04/24 12:12:46;;;;;;;1999.90;999.90;;;10.30;99.90;;;;;;6672825;88;20243;-80
2023/04/24 12:22:47;;;;;;;1999.90;999.90;;;10.60;99.90;;;;;;6653289;88;20207;-80
2023/04/24 12:32:49;;;;;;;1999.90;999.90;;;11.10;99.90;;;;;;6664500;88;20233;-79
2023/04/24 12:42:51;;;;;;;1999.90;999.90;;;11.70;99.90;;;;;;6676151;88;20218;-80
2023/04/24 12:52:52;;;;;;;1999.90;999.90;;;12.50;99.90;;;;;;6668566;88;20271;-80
2023/04/24 13:02:52;;;;;;;1999.90;999.90;;;12.70;99.90;;;;;;6673743;88;20677;-78
2023/04/24 13:12:53;;;;;;;1999.90;999.90;;;13.50;99.90;;;;;;6666740;88;20240;-79
2023/04/24 13:22:54;;;;;;;1999.90;999.90;;;12.60;99.90;;;;;;6700502;88;20551;-80
2023/04/24 13:32:54;;;;;;;1999.90;999.90;;;12.10;99.90;;;;;;6680623;88;20201;-79
2023/04/24 13:42:55;;;;;;;1999.90;999.90;;;12.40;99.90;;;;;;6657565;88;20276;-80
2023/04/24 13:52:56;;;;;;;1999.90;999.90;;;13.30;99.90;;;;;;6680156;88;20716;-79
2023/04/24 14:02:57;;;;;;;1999.90;999.90;;;14.80;99.90;;;;;;6670904;88;20203;-80
2023/04/24 14:12:57;;;;;;;1999.90;999.90;;;14.70;99.90;;;;;;6656677;89;20808;-79
2023/04/24 14:23:00;;;;;;;1999.90;999.90;;;13.70;99.90;;;;;;6660045;88;20204;-78
2023/04/24 14:33:01;;;;;;;1999.90;999.90;;;12.50;99.90;;;;;;6688833;88;20713;-80
2023/04/24 14:43:02;;;;;;;1999.90;999.90;;;12.80;99.90;;;;;;6671281;88;20258;-79
2023/04/24 14:53:02;;;;;;;1999.90;999.90;;;12.70;99.90;;;;;;6695490;78;20706;-79
2023/04/24 15:03:03;;;;;;;1999.90;999.90;;;13.40;99.90;;;;;;6723251;88;20665;-78
2023/04/24 15:13:04;;;;;;;1999.90;999.90;;;14.80;99.90;;;;;;6717236;88;20205;-79
2023/04/24 15:23:05;;;;;;;1999.90;999.90;;;14.90;99.90;;;;;;6718056;88;20247;-79
2023/04/24 15:33:06;;;;;;;1999.90;999.90;;;15.10;99.90;;;;;;6717590;88;20211;-79
2023/04/24 15:43:07;;;;;;;1999.90;999.90;;;15.40;99.90;;;;;;6713934;88;20232;-79
2023/04/24 15:53:07;;;;;;;1999.90;999.90;;;14.70;99.90;;;;;;6711842;88;20243;-79
2023/04/24 16:03:08;;;;;;;1999.90;999.90;;;14.50;99.90;;;;;;6710076;88;20542;-79
2023/04/24 16:13:09;;;;;;;1999.90;999.90;;;14.00;99.90;;;;;;6713839;88;20191;-80
2023/04/24 16:23:09;;;;;;;1999.90;999.90;;;13.90;99.90;;;;;;6709472;88;20194;-79
2023/04/24 16:33:10;;;;;;;1999.90;999.90;;;13.80;99.90;;;;;;6715077;88;20227;-81
2023/04/24 16:43:11;;;;;;;1999.90;999.90;;;13.40;99.90;;;;;;6718136;88;20201;-79
2023/04/24 16:53:11;;;;;;;1999.90;999.90;;;13.10;99.90;;;;;;6711827;88;20193;-79
2023/04/24 17:03:12;;;;;;;1999.90;999.90;;;12.90;99.90;;;;;;6712972;88;20574;-79
2023/04/24 17:13:13;;;;;;;1999.90;999.90;;;12.80;99.90;;;;;;6712107;88;20201;-79
2023/04/24 17:23:13;;;;;;;1999.90;999.90;;;12.60;99.90;;;;;;6712201;88;20174;-77
2023/04/24 17:33:14;;;;;;;1999.90;999.90;;;12.40;99.90;;;;;;6707113;88;20212;-78
2023/04/24 17:43:16;;;;;;;1999.90;999.90;;;12.20;99.90;;;;;;6710804;88;20255;-80
2023/04/24 17:53:18;;;;;;;1999.90;999.90;;;11.90;99.90;;;;;;6711519;88;20325;-80
2023/04/24 18:03:18;;;;;;;1999.90;999.90;;;11.70;99.90;;;;;;6707175;88;20200;-80
2023/04/24 18:13:19;;;;;;;1999.90;999.90;;;11.60;99.90;;;;;;6713143;88;20253;-78
2023/04/24 18:23:19;;;;;;;1999.90;999.90;;;11.50;99.90;;;;;;6715271;88;20670;-78
2023/04/24 18:33:20;;;;;;;1999.90;999.90;;;11.40;99.90;;;;;;6719845;88;20194;-78
2023/04/24 18:43:21;;;;;;;1999.90;999.90;;;11.20;99.90;;;;;;6718537;88;20244;-78
2023/04/24 18:53:21;;;;;;;1999.90;999.90;;;11.30;99.90;;;;;;6728203;88;20284;-79
2023/04/24 19:03:22;;;;;;;1999.90;999.90;;;11.20;99.90;;;;;;6713683;88;21062;-79
2023/04/24 19:13:22;;;;;;;1999.90;999.90;;;11.10;99.90;;;;;;6708901;88;20249;-78
2023/04/24 19:23:23;;;;;;;1999.90;999.90;;;11.00;99.90;;;;;;6715381;88;20755;-78
2023/04/24 19:33:24;;;;;;;1999.90;999.90;;;11.00;99.90;;;;;;6716657;88;20264;-78
2023/04/24 19:43:25;;;;;;;1999.90;999.90;;;10.80;99.90;;;;;;6713196;88;20225;-78
2023/04/24 19:53:26;;;;;;;1999.90;999.90;;;10.80;99.90;;;;;;6715826;88;20791;-79
2023/04/24 20:03:27;;;;;;;1999.90;999.90;;;10.60;99.90;;;;;;6714489;88;20211;-78
2023/04/24 20:13:27;;;;;;;1999.90;999.90;;;10.50;99.90;;;;;;6714418;88;20171;-79
2023/04/24 20:23:28;;;;;;;1999.90;999.90;;;10.40;99.90;;;;;;6715150;88;20201;-78
2023/04/24 20:33:29;;;;;;;1999.90;999.90;;;10.20;99.90;;;;;;6713579;88;20522;-78
2023/04/24 20:43:30;;;;;;;1999.90;999.90;;;10.10;99.90;;;;;;6718549;88;20539;-77
2023/04/24 21:03:34;;;;;;;1999.90;999.90;;;9.90;99.90;;;;;;6728120;88;20194;-79
2023/04/24 21:13:35;;;;;;;1999.90;999.90;;;9.70;99.90;;;;;;6734058;88;20205;-79
2023/04/24 21:23:35;;;;;;;1999.90;999.90;;;9.60;99.90;;;;;;6727701;88;20184;-80
2023/04/24 21:33:36;;;;;;;1999.90;999.90;;;9.50;99.90;;;;;;6722478;88;20181;-80
2023/04/24 21:43:37;;;;;;;1999.90;999.90;;;9.40;99.90;;;;;;6725836;88;20193;-81
2023/04/24 21:53:37;;;;;;;1999.90;999.90;;;9.20;99.90;;;;;;6709463;88;20224;-79
2023/04/24 22:03:38;;;;;;;1999.90;999.90;;;8.90;99.90;;;;;;6709901;88;20237;-79
2023/04/24 22:13:38;;;;;;;1999.90;999.90;;;8.70;99.90;;;;;;6708658;88;20186;-80
2023/04/24 22:23:39;;;;;;;1999.90;999.90;;;8.60;99.90;;;;;;6708529;88;20190;-79
2023/04/24 22:33:40;;;;;;;1999.90;999.90;;;8.50;99.90;;;;;;6708557;88;20202;-79
2023/04/24 22:43:40;;;;;;;1999.90;999.90;;;8.40;99.90;;;;;;6708631;88;20389;-78
2023/04/24 22:53:41;;;;;;;1999.90;999.90;;;8.30;99.90;;;;;;6709040;88;20287;-79
2023/04/24 23:03:42;;;;;;;1999.90;999.90;;;8.20;99.90;;;;;;6713338;88;20178;-79
2023/04/24 23:13:43;;;;;;;1999.90;999.90;;;8.20;99.90;;;;;;6719408;88;20197;-79
2023/04/24 23:23:43;;;;;;;1999.90;999.90;;;8.20;99.90;;;;;;6719808;88;20214;-80
2023/04/24 23:33:44;;;;;;;1999.90;999.90;;;8.20;99.90;;;;;;6712358;88;20666;-80
2023/04/24 23:43:44;;;;;;;1999.90;999.90;;;8.10;99.90;;;;;;6711482;88;20186;-79
2023/04/24 23:53:45;;;;;;;1999.90;999.90;;;8.10;99.90;;;;;;6711410;88;20199;-79
